SBCFSBVT

Guest
Details From SBCF - Tancredo Neves
To SBVT - Goiabeiras
Flight Number -
Tags generated
Created
Modified
Stats Distance 211 nm / 391 km
Max Altitude 23,100 ft / 7,041 m
Waypoints 3
Social Downloads 6
Likes 0
Share VATSIM

Download

Looking for another format? Having issues loading an existing format? Contact us
Advertisement - Login to hide

Notes

Basic altitude profile: - Ascent Rate: 2500ft/min - Ascent Speed: 250kts - Cruise Altitude: 35000ft - Cruise Speed: 420kts - Descent Rate: 1500ft/min - Descent Speed: 250kts Options: - Use NATs: yes - Use PACOTS: yes - Use low airways: no - Use high airways: yes

Route

SBCF NABLA SBVT

ID Type Via Altitude Latitude Longitude Leg Dist Tot Dist Heading (true) Name
O SBCF APT - 0 ft / 0 m -19.63376˚ -43.96885˚ - 0 nm - Tancredo Neves
NABLA FIX - 23,100 ft / 7,041 m -19.91433˚ -42.16783˚ 103 nm 103 nm 100° / 99° -
O SBVT APT - 0 ft / 0 m -20.25561˚ -40.28889˚ 107 nm 211 nm 101° / 101° Goiabeiras

Altitude Profile

Advertisement - Login to hide

Weather


0- 5 10 15 20 25 30 35+ Temperature / ° C

Clouds and Precipitation
Forecast for 2017-12-13 12:00 UTC. Updated 2 hours ago

Ground ~20,000 ft ~40,000 ft Winds

SBCF

Details ICAO SBCF (CNF)
Name Tancredo Neves
Region Brazil
Timezone America/Sao_Paulo (UTC-2.0)
Stats Elevation 2,715 ft / 828 m (AMSL)
Location -19.633758° -43.968854°
Runways 1
Magnetic Variation 22.804° W

METAR

SBCF 131000Z 11012KT 9999 FEW030 20/15 Q1019

Decode

TAF

TAF SBCF 130200Z 1306/1406 09006KT 9999 BKN015 TN19/1309Z TX28/1318Z PROB30 1307/1311 09010KT 2000 BR BKN008 BECMG 1312/1314 9999 BKN018 BECMG 1318/1320 09005KT 9999 BKN030 FEW035TCU BECMG 1321/1323 9000 NSC RMK PDC

Decode

Departure Runways

ID Width Length Bearing (true) Bearing (mag) Surface Threshold Offset Overrun Length
16 148 ft / 45 m 9,872 ft / 3,009 m 138.97° 161.77° Asphalt 0 ft / 0 m 203 ft / 62 m
34 148 ft / 45 m 9,872 ft / 3,009 m 318.96° 341.76° Asphalt 0 ft / 0 m 203 ft / 62 m

SBVT

Details ICAO SBVT (VIX)
Name Goiabeiras
Region Brazil
Timezone America/Sao_Paulo (UTC-2.0)
Stats Elevation 11 ft / 3 m (AMSL)
Location -20.255611° -40.288893°
Runways 1
Magnetic Variation 23.796° W

METAR

SBVT 131000Z 15008KT 9999 SCT010 BKN040 25/20 Q1017

Decode

TAF

TAF SBVT 130230Z 1306/1406 25005KT 8000 SCT020 TN23/1308Z TX28/1315Z TEMPO 1306/1309 4000 SHRA BKN006 BKN020 BECMG 1312/1314 16010KT TEMPO 1319/1322 4500 SHRA BKN016 FEW025TCU BECMG 1323/1401 33004KT RMK PEA

Decode

Destination Runways

ID Width Length Bearing (true) Bearing (mag) Surface Threshold Offset Overrun Length
05 148 ft / 45 m 5,769 ft / 1,759 m 31.71° 55.51° Asphalt 0 ft / 0 m 189 ft / 58 m
23 148 ft / 45 m 5,769 ft / 1,759 m 211.71° 235.51° Asphalt 0 ft / 0 m 189 ft / 58 m

Popular Alternatives